sensor_id;sensor_type;location;lat;lon;timestamp;P1;P2;P0
31163;PMS5003;17796;49.296;-117.656;2022-08-03T00:14:19;7;7;
31163;PMS5003;17796;49.296;-117.656;2022-08-03T00:29:22;9;7;
31163;PMS5003;17796;49.296;-117.656;2022-08-03T00:44:26;8;8;
31163;PMS5003;17796;49.296;-117.656;2022-08-03T00:59:30;6;6;
31163;PMS5003;17796;49.296;-117.656;2022-08-03T01:14:40;9;9;
31163;PMS5003;17796;49.296;-117.656;2022-08-03T01:30:02;11;11;
31163;PMS5003;17796;49.296;-117.656;2022-08-03T01:45:08;12;10;
31163;PMS5003;17796;49.296;-117.656;2022-08-03T02:00:14;14;14;
31163;PMS5003;17796;49.296;-117.656;2022-08-03T02:15:19;11;9;
31163;PMS5003;17796;49.296;-117.656;2022-08-03T02:30:28;11;10;
31163;PMS5003;17796;49.296;-117.656;2022-08-03T02:45:35;12;12;
31163;PMS5003;17796;49.296;-117.656;2022-08-03T03:00:45;14;14;
31163;PMS5003;17796;49.296;-117.656;2022-08-03T03:15:50;11;11;
31163;PMS5003;17796;49.296;-117.656;2022-08-03T03:30:54;15;12;
31163;PMS5003;17796;49.296;-117.656;2022-08-03T03:45:58;13;13;
31163;PMS5003;17796;49.296;-117.656;2022-08-03T04:01:03;13;13;
31163;PMS5003;17796;49.296;-117.656;2022-08-03T04:16:08;14;14;
31163;PMS5003;17796;49.296;-117.656;2022-08-03T04:31:19;13;13;
31163;PMS5003;17796;49.296;-117.656;2022-08-03T04:46:27;17;17;
31163;PMS5003;17796;49.296;-117.656;2022-08-03T05:01:31;16;15;
31163;PMS5003;17796;49.296;-117.656;2022-08-03T05:16:35;15;15;
31163;PMS5003;17796;49.296;-117.656;2022-08-03T05:31:39;18;16;
31163;PMS5003;17796;49.296;-117.656;2022-08-03T05:46:42;14;14;
31163;PMS5003;17796;49.296;-117.656;2022-08-03T06:01:46;14;14;
31163;PMS5003;17796;49.296;-117.656;2022-08-03T06:16:49;16;14;
31163;PMS5003;17796;49.296;-117.656;2022-08-03T06:31:53;9;9;
31163;PMS5003;17796;49.296;-117.656;2022-08-03T06:46:57;13;9;
31163;PMS5003;17796;49.296;-117.656;2022-08-03T07:02:00;13;12;
31163;PMS5003;17796;49.296;-117.656;2022-08-03T07:17:04;16;16;
31163;PMS5003;17796;49.296;-117.656;2022-08-03T07:32:08;17;17;
31163;PMS5003;17796;49.296;-117.656;2022-08-03T07:47:11;19;18;
31163;PMS5003;17796;49.296;-117.656;2022-08-03T08:02:15;22;18;
31163;PMS5003;17796;49.296;-117.656;2022-08-03T08:17:19;21;21;
31163;PMS5003;17796;49.296;-117.656;2022-08-03T08:32:22;22;22;
31163;PMS5003;17796;49.296;-117.656;2022-08-03T08:47:30;25;22;
31163;PMS5003;17796;49.296;-117.656;2022-08-03T09:02:33;20;20;
31163;PMS5003;17796;49.296;-117.656;2022-08-03T09:17:41;22;22;
31163;PMS5003;17796;49.296;-117.656;2022-08-03T09:32:45;28;28;
31163;PMS5003;17796;49.296;-117.656;2022-08-03T09:47:49;18;18;
31163;PMS5003;17796;49.296;-117.656;2022-08-03T10:03:03;21;18;
31163;PMS5003;17796;49.296;-117.656;2022-08-03T10:18:07;20;19;
31163;PMS5003;17796;49.296;-117.656;2022-08-03T10:33:16;20;19;
31163;PMS5003;17796;49.296;-117.656;2022-08-03T10:48:22;18;17;
31163;PMS5003;17796;49.296;-117.656;2022-08-03T11:03:26;20;20;
31163;PMS5003;17796;49.296;-117.656;2022-08-03T11:18:30;19;18;
31163;PMS5003;17796;49.296;-117.656;2022-08-03T11:33:34;23;23;
31163;PMS5003;17796;49.296;-117.656;2022-08-03T11:48:39;22;22;
31163;PMS5003;17796;49.296;-117.656;2022-08-03T12:03:43;22;21;
31163;PMS5003;17796;49.296;-117.656;2022-08-03T12:18:54;20;20;
31163;PMS5003;17796;49.296;-117.656;2022-08-03T12:34:00;18;18;
31163;PMS5003;17796;49.296;-117.656;2022-08-03T12:49:06;20;19;
31163;PMS5003;17796;49.296;-117.656;2022-08-03T13:04:11;21;19;
31163;PMS5003;17796;49.296;-117.656;2022-08-03T13:19:14;23;21;
31163;PMS5003;17796;49.296;-117.656;2022-08-03T13:34:18;27;23;
31163;PMS5003;17796;49.296;-117.656;2022-08-03T13:49:22;27;25;
31163;PMS5003;17796;49.296;-117.656;2022-08-03T14:04:25;25;22;
31163;PMS5003;17796;49.296;-117.656;2022-08-03T14:19:29;20;19;
31163;PMS5003;17796;49.296;-117.656;2022-08-03T14:34:33;20;18;
31163;PMS5003;17796;49.296;-117.656;2022-08-03T14:49:36;29;27;
31163;PMS5003;17796;49.296;-117.656;2022-08-03T15:04:40;20;20;
31163;PMS5003;17796;49.296;-117.656;2022-08-03T15:19:43;30;26;
31163;PMS5003;17796;49.296;-117.656;2022-08-03T15:34:47;48;44;
31163;PMS5003;17796;49.296;-117.656;2022-08-03T15:49:51;33;32;
31163;PMS5003;17796;49.296;-117.656;2022-08-03T16:04:54;30;30;
31163;PMS5003;17796;49.296;-117.656;2022-08-03T16:19:58;29;28;
31163;PMS5003;17796;49.296;-117.656;2022-08-03T16:35:02;32;31;
31163;PMS5003;17796;49.296;-117.656;2022-08-03T16:50:07;31;28;
31163;PMS5003;17796;49.296;-117.656;2022-08-03T17:05:10;33;31;
31163;PMS5003;17796;49.296;-117.656;2022-08-03T17:20:15;31;27;
31163;PMS5003;17796;49.296;-117.656;2022-08-03T17:35:20;37;36;
31163;PMS5003;17796;49.296;-117.656;2022-08-03T17:50:30;45;41;
31163;PMS5003;17796;49.296;-117.656;2022-08-03T18:05:37;48;43;
31163;PMS5003;17796;49.296;-117.656;2022-08-03T18:20:44;45;42;
31163;PMS5003;17796;49.296;-117.656;2022-08-03T18:35:48;68;65;
31163;PMS5003;17796;49.296;-117.656;2022-08-03T18:50:56;59;58;
31163;PMS5003;17796;49.296;-117.656;2022-08-03T19:06:05;55;48;
31163;PMS5003;17796;49.296;-117.656;2022-08-03T19:21:10;58;52;
31163;PMS5003;17796;49.296;-117.656;2022-08-03T19:36:16;50;46;
31163;PMS5003;17796;49.296;-117.656;2022-08-03T19:51:20;56;50;
31163;PMS5003;17796;49.296;-117.656;2022-08-03T20:06:25;57;52;
31163;PMS5003;17796;49.296;-117.656;2022-08-03T20:21:30;54;51;
31163;PMS5003;17796;49.296;-117.656;2022-08-03T20:36:36;58;56;
31163;PMS5003;17796;49.296;-117.656;2022-08-03T20:51:39;61;56;
31163;PMS5003;17796;49.296;-117.656;2022-08-03T21:06:45;60;58;
31163;PMS5003;17796;49.296;-117.656;2022-08-03T21:21:51;54;49;
31163;PMS5003;17796;49.296;-117.656;2022-08-03T21:36:57;59;54;
31163;PMS5003;17796;49.296;-117.656;2022-08-03T21:52:04;73;63;
31163;PMS5003;17796;49.296;-117.656;2022-08-03T22:07:08;68;63;
31163;PMS5003;17796;49.296;-117.656;2022-08-03T22:22:12;64;62;
31163;PMS5003;17796;49.296;-117.656;2022-08-03T22:37:18;64;60;
31163;PMS5003;17796;49.296;-117.656;2022-08-03T22:52:23;73;71;
31163;PMS5003;17796;49.296;-117.656;2022-08-03T23:07:30;67;61;
31163;PMS5003;17796;49.296;-117.656;2022-08-03T23:22:37;61;58;
31163;PMS5003;17796;49.296;-117.656;2022-08-03T23:37:41;65;61;
31163;PMS5003;17796;49.296;-117.656;2022-08-03T23:52:57;71;63;
